Hillsborough, New Jersey
Current Conditions -  °F | °C
As of 12:53 PM on Friday 28 Nov 2014 (Local Time) from KSMQ Reporting Station
Scattered Clouds Scattered Clouds  
Wind Chill: 27°   Ceiling: Unl
Heat Index: 36°   Visibility: 10mi
Dew Point: 17°   Wind: 14mph
Humidity: 46%   Direction: 310°NW
Pressure: 30.17"   Gusts: 22mph
Location:  40.5°N, 74.69°W
Report Text: KSMQ 281753Z AUTO 31012G19KT 10SM SCT045 02/M08 A3017 RMK AO2 SLP219 T00221083 10022 21033 56012
Loading
Personal Weather Stations






























Interactive Weather Map New forecast layout! Learn more

10-Day Weather Forecast

Advertisements
Track Severe Weather on mobile